createdAt,value
2023-10-20T00:00:43.214Z,99051.13
2023-10-20T00:03:10.603Z,99050.19
2023-10-20T00:05:37.821Z,99049.47
2023-10-20T00:08:06.205Z,99054.84
2023-10-20T00:10:36.958Z,99070.41
2023-10-20T00:13:07.022Z,99064.44
2023-10-20T00:15:34.718Z,99056.50
2023-10-20T00:18:02.656Z,99053.22
2023-10-20T00:20:30.009Z,99050.19
2023-10-20T00:22:57.458Z,99029.69
2023-10-20T00:25:24.279Z,99030.25
2023-10-20T00:27:50.899Z,99022.44
2023-10-20T00:30:17.541Z,99002.56
2023-10-20T00:32:44.433Z,99001.84
2023-10-20T00:35:14.866Z,98984.78
2023-10-20T00:37:42.343Z,98972.59
2023-10-20T00:40:13.028Z,98978.09
2023-10-20T00:42:40.322Z,98981.84
2023-10-20T00:45:09.524Z,98976.59
2023-10-20T00:47:38.511Z,98977.16
2023-10-20T00:50:07.116Z,98971.19
2023-10-20T00:52:37.098Z,98968.63
2023-10-20T00:55:04.802Z,98977.97
2023-10-20T00:57:31.924Z,98974.69
2023-10-20T00:59:58.930Z,98978.56
2023-10-20T01:02:25.674Z,98961.38
2023-10-20T01:04:52.816Z,98956.56
2023-10-20T01:07:19.377Z,98953.31
2023-10-20T01:09:46.201Z,98951.66
2023-10-20T01:12:12.742Z,98960.78
2023-10-20T01:14:39.811Z,98944.88
2023-10-20T01:17:06.672Z,98939.50
2023-10-20T01:19:33.689Z,98928.16
2023-10-20T01:22:01.027Z,98915.03
2023-10-20T01:24:28.041Z,98917.50
2023-10-20T01:26:54.636Z,98909.44
2023-10-20T01:29:21.707Z,98902.19
2023-10-20T01:31:48.360Z,98895.16
2023-10-20T01:34:15.011Z,98900.06
2023-10-20T01:36:41.557Z,98895.41
2023-10-20T01:39:09.371Z,98897.47
2023-10-20T01:41:36.138Z,98907.22
2023-10-20T01:44:03.519Z,98913.16
2023-10-20T01:46:30.368Z,98925.00
2023-10-20T01:48:57.112Z,98919.72
2023-10-20T01:51:23.647Z,98941.47
2023-10-20T01:53:50.173Z,98943.94
2023-10-20T01:56:16.881Z,98949.91
2023-10-20T01:58:43.467Z,98934.47
2023-10-20T02:01:10.464Z,98920.41
2023-10-20T02:03:38.089Z,98899.13
2023-10-20T02:06:05.937Z,98890.34
2023-10-20T02:08:33.196Z,98890.34
2023-10-20T02:10:59.826Z,98890.03
2023-10-20T02:13:26.373Z,98902.28
2023-10-20T02:15:52.972Z,98914.22
2023-10-20T02:18:19.599Z,98913.16
2023-10-20T02:20:46.269Z,98905.81
2023-10-20T02:23:12.911Z,98893.97
2023-10-20T02:25:39.559Z,98893.28
2023-10-20T02:28:06.646Z,98892.94
2023-10-20T02:30:33.744Z,98886.97
2023-10-20T02:33:03.134Z,98895.63
2023-10-20T02:35:29.770Z,98894.56
2023-10-20T02:37:56.379Z,98884.03
2023-10-20T02:40:23.147Z,98879.72
2023-10-20T02:42:49.700Z,98887.34
2023-10-20T02:45:16.392Z,98875.75
2023-10-20T02:47:43.064Z,98868.50
2023-10-20T02:50:10.048Z,98862.16
2023-10-20T02:52:36.949Z,98868.72
2023-10-20T02:55:03.649Z,98863.34
2023-10-20T02:57:30.838Z,98856.09
2023-10-20T02:59:57.390Z,98836.91
2023-10-20T03:02:24.272Z,98831.53
2023-10-20T03:04:57.058Z,98833.88
2023-10-20T03:07:28.298Z,98836.34
2023-10-20T03:09:55.500Z,98826.41
2023-10-20T03:12:22.059Z,98831.53
2023-10-20T03:14:49.222Z,98820.31
2023-10-20T03:17:16.136Z,98821.25
2023-10-20T03:19:46.032Z,98818.44
2023-10-20T03:22:13.907Z,98821.13
2023-10-20T03:24:42.205Z,98808.84
2023-10-20T03:27:08.813Z,98800.91
2023-10-20T03:29:35.516Z,98802.06
2023-10-20T03:32:02.208Z,98784.53
2023-10-20T03:34:28.798Z,98778.78
2023-10-20T03:36:55.310Z,98773.41
2023-10-20T03:39:21.892Z,98767.72
2023-10-20T03:41:51.705Z,98757.06
2023-10-20T03:44:18.551Z,98749.81
2023-10-20T03:46:49.594Z,98752.25
2023-10-20T03:49:19.648Z,98745.81
2023-10-20T03:51:52.595Z,98734.25
2023-10-20T03:54:20.087Z,98732.59
2023-10-20T03:56:46.674Z,98728.16
2023-10-20T03:59:17.604Z,98727.13
2023-10-20T04:01:44.600Z,98723.59
2023-10-20T04:04:12.919Z,98711.47
2023-10-20T04:06:40.331Z,98703.66
2023-10-20T04:09:10.756Z,98718.59
2023-10-20T04:11:38.745Z,98714.50
2023-10-20T04:14:09.918Z,98709.59
2023-10-20T04:16:43.739Z,98716.25
2023-10-20T04:19:15.358Z,98709.59
2023-10-20T04:21:47.452Z,98716.13
2023-10-20T04:24:14.036Z,98712.84
2023-10-20T04:26:44.676Z,98715.78
2023-10-20T04:29:11.265Z,98717.88
2023-10-20T04:31:56.495Z,98717.78
2023-10-20T04:34:41.661Z,98714.53
2023-10-20T04:37:26.971Z,98715.81
2023-10-20T04:40:12.031Z,98716.03
2023-10-20T04:42:41.420Z,98728.88
2023-10-20T04:45:23.141Z,98715.06
2023-10-20T04:48:15.388Z,98712.38
2023-10-20T04:51:08.775Z,98700.47
2023-10-20T04:53:54.199Z,98692.66
2023-10-20T04:56:34.207Z,98697.78
2023-10-20T04:59:06.800Z,98689.47
2023-10-20T05:01:50.642Z,98680.81
2023-10-20T05:04:30.093Z,98672.44
2023-10-20T05:07:06.282Z,98655.00
2023-10-20T05:09:42.201Z,98667.88
2023-10-20T05:12:09.242Z,98680.81
2023-10-20T05:14:36.231Z,98676.50
2023-10-20T05:17:03.215Z,98662.97
2023-10-20T05:19:33.964Z,98665.66
2023-10-20T05:22:03.297Z,98668.34
2023-10-20T05:24:29.889Z,98674.03
2023-10-20T05:26:56.398Z,98666.47
2023-10-20T05:29:22.946Z,98646.84
2023-10-20T05:31:49.529Z,98656.19
2023-10-20T05:34:16.058Z,98665.06
2023-10-20T05:36:43.782Z,98670.44
2023-10-20T05:39:10.619Z,98664.25
2023-10-20T05:41:37.351Z,98667.19
2023-10-20T05:44:05.997Z,98650.22
2023-10-20T05:46:32.852Z,98645.91
2023-10-20T05:48:59.514Z,98637.03
2023-10-20T05:51:26.075Z,98635.16
2023-10-20T05:53:54.493Z,98628.97
2023-10-20T05:56:21.205Z,98628.97
2023-10-20T05:58:47.779Z,98622.44
2023-10-20T06:01:18.852Z,98627.81
2023-10-20T06:03:45.373Z,98622.19
2023-10-20T06:06:12.210Z,98625.69
2023-10-20T06:08:38.864Z,98624.06
2023-10-20T06:11:06.789Z,98626.97
2023-10-20T06:13:36.474Z,98605.97
2023-10-20T06:16:11.316Z,98604.91
2023-10-20T06:18:39.618Z,98596.84
2023-10-20T06:21:06.922Z,98595.22
2023-10-20T06:23:33.581Z,98586.69
2023-10-20T06:26:00.440Z,98592.31
2023-10-20T06:28:27.892Z,98600.59
2023-10-20T06:30:55.855Z,98607.81
2023-10-20T06:33:23.618Z,98621.50
2023-10-20T06:35:52.428Z,98610.97
2023-10-20T06:38:26.718Z,98630.84
2023-10-20T06:40:53.870Z,98633.75
2023-10-20T06:43:21.187Z,98628.75
2023-10-20T06:45:56.170Z,98625.72
2023-10-20T06:48:22.752Z,98645.34
2023-10-20T06:50:49.339Z,98630.25
2023-10-20T06:53:15.965Z,98627.94
2023-10-20T06:56:09.422Z,98625.50
2023-10-20T06:58:30.184Z,98628.03
2023-10-20T07:00:56.747Z,98633.41
2023-10-20T07:03:23.520Z,98625.13
2023-10-20T07:05:50.142Z,98625.97
2023-10-20T07:08:16.742Z,98617.91
2023-10-20T07:10:43.433Z,98622.09
2023-10-20T07:13:11.955Z,98614.03
2023-10-20T07:15:40.010Z,98599.31
2023-10-20T07:18:07.142Z,98601.44
2023-10-20T07:20:35.203Z,98604.09
2023-10-20T07:23:01.924Z,98596.63
2023-10-20T07:25:28.642Z,98609.22
2023-10-20T07:27:56.857Z,98598.75
2023-10-20T07:30:24.932Z,98596.06
2023-10-20T07:32:52.742Z,98594.41
2023-10-20T07:35:19.713Z,98594.41
2023-10-20T07:37:46.419Z,98592.78
2023-10-20T07:40:13.103Z,98585.78
2023-10-20T07:42:43.794Z,98586.59
2023-10-20T07:45:11.738Z,98589.03
2023-10-20T07:47:38.720Z,98585.78
2023-10-20T07:50:07.589Z,98582.28
2023-10-20T07:52:35.706Z,98583.91
2023-10-20T07:55:03.381Z,98578.75
2023-10-20T07:57:30.114Z,98576.31
2023-10-20T07:59:56.821Z,98571.78
2023-10-20T08:02:24.950Z,98570.94
2023-10-20T08:04:52.312Z,98571.53
2023-10-20T08:07:19.464Z,98584.38
2023-10-20T08:09:46.155Z,98572.00
2023-10-20T08:12:12.690Z,98573.38
2023-10-20T08:14:39.345Z,98584.84
2023-10-20T08:17:08.772Z,98583.56
2023-10-20T08:19:36.032Z,98571.16
2023-10-20T08:22:02.750Z,98575.97
2023-10-20T08:24:29.347Z,98576.53
2023-10-20T08:26:56.054Z,98573.03
2023-10-20T08:29:22.696Z,98551.78
2023-10-20T08:31:49.265Z,98554.47
2023-10-20T08:34:15.885Z,98572.00
2023-10-20T08:36:42.527Z,98558.81
2023-10-20T08:39:15.035Z,98552.63
2023-10-20T08:41:45.568Z,98541.06
2023-10-20T08:44:12.996Z,98542.69
2023-10-20T08:46:44.032Z,98537.78
2023-10-20T08:49:11.346Z,98550.97
2023-10-20T08:51:39.652Z,98542.09
2023-10-20T08:54:10.270Z,98548.75
2023-10-20T08:56:37.512Z,98537.19
2023-10-20T08:59:06.402Z,98539.88
2023-10-20T09:01:36.063Z,98538.00
2023-10-20T09:04:04.202Z,98532.44
2023-10-20T09:06:31.701Z,98530.78
2023-10-20T09:09:00.379Z,98529.97
2023-10-20T09:11:31.965Z,98529.13
2023-10-20T09:14:00.613Z,98527.53
2023-10-20T09:16:28.315Z,98520.84
2023-10-20T09:18:56.026Z,98529.38
2023-10-20T09:21:29.679Z,98524.00
2023-10-20T09:24:03.073Z,98526.69
2023-10-20T09:26:31.686Z,98518.66
2023-10-20T09:29:00.006Z,98533.13
2023-10-20T09:31:28.432Z,98529.38
2023-10-20T09:33:55.424Z,98534.41
2023-10-20T09:36:24.334Z,98525.31
2023-10-20T09:38:54.003Z,98520.16
2023-10-20T09:41:30.882Z,98522.03
2023-10-20T09:44:07.833Z,98523.09
2023-10-20T09:46:50.773Z,98525.53
2023-10-20T09:49:27.285Z,98531.38
2023-10-20T09:51:56.602Z,98521.69
2023-10-20T09:54:26.626Z,98520.53
2023-10-20T09:56:54.179Z,98514.91
2023-10-20T09:59:22.448Z,98515.50
2023-10-20T10:01:49.161Z,98513.03
2023-10-20T10:04:15.764Z,98514.69
2023-10-20T10:06:46.802Z,98515.50
2023-10-20T10:09:16.320Z,98513.28
2023-10-20T10:11:46.514Z,98511.44
2023-10-20T10:14:23.642Z,98519.03
2023-10-20T10:16:55.302Z,98500.69
2023-10-20T10:19:27.047Z,98501.47
2023-10-20T10:21:58.010Z,98507.69
2023-10-20T10:24:26.410Z,98505.00
2023-10-20T10:27:03.353Z,98497.75
2023-10-20T10:29:50.588Z,98492.16
2023-10-20T10:32:20.527Z,98473.84
2023-10-20T10:34:55.682Z,98470.81
2023-10-20T10:37:35.605Z,98472.19
2023-10-20T10:40:17.017Z,98479.44
2023-10-20T10:42:48.447Z,98473.25
2023-10-20T10:45:19.950Z,98462.50
2023-10-20T10:47:47.725Z,98452.00
2023-10-20T10:50:16.506Z,98460.28
2023-10-20T10:52:43.130Z,98457.94
2023-10-20T10:55:11.003Z,98462.75
2023-10-20T10:57:38.387Z,98447.47
2023-10-20T11:00:07.474Z,98445.56
2023-10-20T11:02:34.882Z,98448.50
2023-10-20T11:05:02.213Z,98436.94
2023-10-20T11:07:28.817Z,98434.72
2023-10-20T11:09:55.408Z,98426.44
2023-10-20T11:12:23.353Z,98413.25
2023-10-20T11:14:51.305Z,98426.94
2023-10-20T11:17:18.109Z,98414.28
2023-10-20T11:19:45.912Z,98412.22
2023-10-20T11:22:19.487Z,98416.28
2023-10-20T11:24:53.865Z,98403.41
2023-10-20T11:27:20.958Z,98395.97
2023-10-20T11:29:58.437Z,98404.25
2023-10-20T11:32:27.126Z,98386.50
2023-10-20T11:34:54.282Z,98379.25
2023-10-20T11:37:20.912Z,98375.44
2023-10-20T11:39:48.213Z,98370.38
2023-10-20T11:42:15.199Z,98368.09
2023-10-20T11:44:41.828Z,98363.13
2023-10-20T11:47:08.525Z,98368.84
2023-10-20T11:49:35.098Z,98359.63
2023-10-20T11:52:03.682Z,98345.16
2023-10-20T11:54:30.232Z,98351.56
2023-10-20T11:56:56.904Z,98336.28
2023-10-20T11:59:23.518Z,98342.56
2023-10-20T12:01:50.196Z,98339.09
2023-10-20T12:04:16.933Z,98328.09
2023-10-20T12:06:45.194Z,98319.56
2023-10-20T12:09:17.903Z,98323.88
2023-10-20T12:11:46.428Z,98316.78
2023-10-20T12:14:15.328Z,98310.34
2023-10-20T12:16:43.045Z,98301.25
2023-10-20T12:19:09.637Z,98303.44
2023-10-20T12:21:36.280Z,98300.66
2023-10-20T12:24:05.648Z,98278.38
2023-10-20T12:26:32.304Z,98271.34
2023-10-20T12:28:58.931Z,98261.91
2023-10-20T12:31:25.998Z,98246.97
2023-10-20T12:33:52.841Z,98247.28
2023-10-20T12:36:19.399Z,98258.19
2023-10-20T12:38:46.052Z,98234.84
2023-10-20T12:41:13.468Z,98243.59
2023-10-20T12:43:40.067Z,98229.22
2023-10-20T12:46:06.649Z,98214.16
2023-10-20T12:48:33.406Z,98210.91
2023-10-20T12:51:08.502Z,98204.38
2023-10-20T12:53:35.345Z,98197.47
2023-10-20T12:56:02.190Z,98185.69
2023-10-20T12:58:28.761Z,98185.91
2023-10-20T13:00:55.316Z,98170.63
2023-10-20T13:03:22.095Z,98174.13
2023-10-20T13:05:48.952Z,98169.25
2023-10-20T13:08:15.596Z,98156.88
2023-10-20T13:10:42.344Z,98159.06
2023-10-20T13:13:11.436Z,98153.97
2023-10-20T13:15:39.083Z,98156.06
2023-10-20T13:18:06.020Z,98160.63
2023-10-20T13:20:32.749Z,98155.81
2023-10-20T13:22:59.391Z,98161.25
2023-10-20T13:25:28.130Z,98158.03
2023-10-20T13:27:54.729Z,98157.19
2023-10-20T13:30:21.422Z,98154.78
2023-10-20T13:32:48.074Z,98158.38
2023-10-20T13:35:15.873Z,98150.16
2023-10-20T13:37:42.545Z,98146.25
2023-10-20T13:40:13.091Z,98141.19
2023-10-20T13:42:40.229Z,98142.09
2023-10-20T13:45:08.856Z,98136.44
2023-10-20T13:47:36.088Z,98144.00
2023-10-20T13:50:07.849Z,98137.31
2023-10-20T13:52:34.433Z,98140.06
2023-10-20T13:55:01.020Z,98139.94
2023-10-20T13:57:27.611Z,98146.06
2023-10-20T13:59:54.487Z,98158.44
2023-10-20T14:02:21.095Z,98149.72
2023-10-20T14:04:47.669Z,98160.53
2023-10-20T14:07:14.237Z,98144.41
2023-10-20T14:09:40.886Z,98144.06
2023-10-20T14:12:07.636Z,98149.88
2023-10-20T14:14:34.315Z,98133.88
2023-10-20T14:17:07.419Z,98142.25
2023-10-20T14:19:35.665Z,98141.50
2023-10-20T14:22:02.944Z,98141.81
2023-10-20T14:24:29.731Z,98132.72
2023-10-20T14:27:00.043Z,98136.78
2023-10-20T14:29:26.938Z,98147.53
2023-10-20T14:31:53.921Z,98133.03
2023-10-20T14:34:20.710Z,98117.19
2023-10-20T14:36:47.503Z,98094.09
2023-10-20T14:39:14.093Z,98108.31
2023-10-20T14:41:40.819Z,98088.94
2023-10-20T14:44:07.446Z,98095.59
2023-10-20T14:46:34.129Z,98101.56
2023-10-20T14:49:00.819Z,98102.53
2023-10-20T14:51:27.418Z,98096.41
2023-10-20T14:53:54.075Z,98108.53
2023-10-20T14:56:20.724Z,98097.50
2023-10-20T14:58:47.428Z,98097.56
2023-10-20T15:01:14.117Z,98093.50
2023-10-20T15:03:40.952Z,98078.88
2023-10-20T15:06:07.812Z,98072.44
2023-10-20T15:08:34.727Z,98069.72
2023-10-20T15:11:07.158Z,98077.44
2023-10-20T15:13:34.022Z,98072.06
2023-10-20T15:16:06.015Z,98075.97
2023-10-20T15:18:33.009Z,98067.50
2023-10-20T15:21:00.114Z,98057.66
2023-10-20T15:23:26.779Z,98067.44
2023-10-20T15:25:53.639Z,98063.66
2023-10-20T15:28:22.031Z,98049.72
2023-10-20T15:30:48.755Z,98047.09
2023-10-20T15:33:18.205Z,98055.94
2023-10-20T15:35:47.606Z,98064.53
2023-10-20T15:38:14.568Z,98043.78
2023-10-20T15:40:41.671Z,98057.47
2023-10-20T15:43:08.305Z,98057.19
2023-10-20T15:45:34.986Z,98052.50
2023-10-20T15:48:04.275Z,98060.56
2023-10-20T15:50:31.612Z,98052.19
2023-10-20T15:52:58.231Z,98054.06
2023-10-20T15:55:24.841Z,98058.06
2023-10-20T15:57:51.389Z,98056.97
2023-10-20T16:00:18.027Z,98061.84
2023-10-20T16:02:44.648Z,98060.69
2023-10-20T16:05:11.364Z,98064.44
2023-10-20T16:07:37.952Z,98057.69
2023-10-20T16:10:05.541Z,98060.97
2023-10-20T16:12:32.078Z,98066.34
2023-10-20T16:14:58.598Z,98060.06
2023-10-20T16:17:25.282Z,98066.03
2023-10-20T16:19:51.841Z,98074.31
2023-10-20T16:22:18.453Z,98071.91
2023-10-20T16:24:45.679Z,98079.97
2023-10-20T16:27:13.048Z,98095.00
2023-10-20T16:29:39.675Z,98093.94
2023-10-20T16:32:06.616Z,98097.69
2023-10-20T16:34:34.229Z,98109.53
2023-10-20T16:37:01.189Z,98105.19
2023-10-20T16:39:27.986Z,98111.31
2023-10-20T16:41:54.612Z,98106.75
2023-10-20T16:44:21.559Z,98111.88
2023-10-20T16:46:48.237Z,98101.13
2023-10-20T16:49:14.960Z,98093.56
2023-10-20T16:51:44.699Z,98080.38
2023-10-20T16:54:12.423Z,98091.94
2023-10-20T16:56:39.301Z,98094.06
2023-10-20T16:59:06.226Z,98102.44
2023-10-20T17:01:33.068Z,98095.44
2023-10-20T17:04:00.073Z,98096.75
2023-10-20T17:06:27.164Z,98100.00
2023-10-20T17:08:54.106Z,98096.25
2023-10-20T17:11:21.371Z,98107.00
2023-10-20T17:13:47.992Z,98100.00
2023-10-20T17:16:14.586Z,98105.63
2023-10-20T17:18:41.280Z,98104.00
2023-10-20T17:21:08.993Z,98100.50
2023-10-20T17:23:36.696Z,98102.94
2023-10-20T17:26:05.116Z,98097.00
2023-10-20T17:28:31.929Z,98101.56
2023-10-20T17:31:01.117Z,98093.25
2023-10-20T17:33:27.890Z,98111.25
2023-10-20T17:35:55.622Z,98111.25
2023-10-20T17:38:22.206Z,98126.88
2023-10-20T17:40:48.753Z,98116.63
2023-10-20T17:43:15.337Z,98116.88
2023-10-20T17:45:42.557Z,98127.63
2023-10-20T17:48:09.234Z,98130.53
2023-10-20T17:50:40.396Z,98135.91
2023-10-20T17:53:08.785Z,98138.59
2023-10-20T17:55:39.883Z,98134.31
2023-10-20T17:58:06.385Z,98135.91
2023-10-20T18:00:34.963Z,98124.34
2023-10-20T18:03:02.032Z,98139.41
2023-10-20T18:05:32.430Z,98143.41
2023-10-20T18:07:59.873Z,98134.53
2023-10-20T18:10:26.447Z,98138.59
2023-10-20T18:12:53.049Z,98126.47
2023-10-20T18:15:20.150Z,98129.53
2023-10-20T18:17:46.784Z,98129.63
2023-10-20T18:20:13.573Z,98132.06
2023-10-20T18:22:41.145Z,98135.34
2023-10-20T18:25:08.371Z,98132.53
2023-10-20T18:27:36.551Z,98132.22
2023-10-20T18:30:03.962Z,98141.97
2023-10-20T18:32:30.716Z,98142.81
2023-10-20T18:34:57.352Z,98147.75
2023-10-20T18:37:24.231Z,98133.78
2023-10-20T18:39:50.837Z,98140.63
2023-10-20T18:42:18.746Z,98135.09
2023-10-20T18:44:45.719Z,98147.75
2023-10-20T18:47:12.289Z,98144.03
2023-10-20T18:49:38.914Z,98143.88
2023-10-20T18:52:05.914Z,98134.75
2023-10-20T18:54:32.480Z,98136.63
2023-10-20T18:56:59.104Z,98137.50
2023-10-20T18:59:25.698Z,98136.44
2023-10-20T19:01:52.395Z,98137.56
2023-10-20T19:04:18.968Z,98133.00
2023-10-20T19:06:45.506Z,98135.44
2023-10-20T19:09:13.587Z,98124.41
2023-10-20T19:11:40.240Z,98135.53
2023-10-20T19:14:06.780Z,98140.72
2023-10-20T19:16:34.628Z,98131.56
2023-10-20T19:19:01.622Z,98135.38
2023-10-20T19:21:28.548Z,98135.13
2023-10-20T19:23:55.223Z,98134.97
2023-10-20T19:26:22.165Z,98137.25
2023-10-20T19:28:48.709Z,98136.25
2023-10-20T19:31:15.436Z,98141.13
2023-10-20T19:33:42.334Z,98137.38
2023-10-20T19:36:10.256Z,98141.19
2023-10-20T19:38:37.983Z,98136.31
2023-10-20T19:41:04.813Z,98144.19
2023-10-20T19:43:31.465Z,98148.25
2023-10-20T19:45:58.093Z,98151.78
2023-10-20T19:48:24.882Z,98147.19
2023-10-20T19:50:51.765Z,98145.59
2023-10-20T19:53:18.415Z,98150.28
2023-10-20T19:55:46.924Z,98149.75
2023-10-20T19:58:13.532Z,98153.03
2023-10-20T20:00:40.880Z,98159.50
2023-10-20T20:03:07.949Z,98154.38
2023-10-20T20:05:35.244Z,98155.41
2023-10-20T20:08:01.967Z,98169.59
2023-10-20T20:10:28.738Z,98160.16
2023-10-20T20:12:55.277Z,98159.16
2023-10-20T20:15:24.262Z,98164.59
2023-10-20T20:17:51.625Z,98154.81
2023-10-20T20:20:18.297Z,98167.72
2023-10-20T20:22:44.858Z,98172.00
2023-10-20T20:25:11.411Z,98173.56
2023-10-20T20:27:38.022Z,98170.88
2023-10-20T20:30:05.643Z,98167.34
2023-10-20T20:32:32.470Z,98163.28
2023-10-20T20:34:59.079Z,98177.81
2023-10-20T20:37:25.710Z,98174.31
2023-10-20T20:39:52.256Z,98184.56
2023-10-20T20:42:19.095Z,98175.91
2023-10-20T20:44:45.788Z,98179.13
2023-10-20T20:47:12.383Z,98176.44
2023-10-20T20:49:38.968Z,98183.72
2023-10-20T20:52:08.306Z,98183.72
2023-10-20T20:54:34.866Z,98180.44
2023-10-20T20:57:01.767Z,98180.19
2023-10-20T20:59:28.563Z,98177.75
2023-10-20T21:01:55.337Z,98180.72
2023-10-20T21:04:21.989Z,98182.34
2023-10-20T21:06:48.658Z,98176.97
2023-10-20T21:09:15.458Z,98184.47
2023-10-20T21:11:42.288Z,98185.28
2023-10-20T21:14:09.598Z,98183.66
2023-10-20T21:16:36.199Z,98193.38
2023-10-20T21:19:04.845Z,98192.31
2023-10-20T21:21:31.434Z,98190.69
2023-10-20T21:23:58.170Z,98196.88
2023-10-20T21:26:24.819Z,98194.19
2023-10-20T21:28:51.405Z,98195.00
2023-10-20T21:31:18.024Z,98212.25
2023-10-20T21:33:44.667Z,98197.44
2023-10-20T21:36:16.220Z,98200.13
2023-10-20T21:38:43.025Z,98219.81
2023-10-20T21:41:10.074Z,98219.56
2023-10-20T21:43:36.707Z,98211.72
2023-10-20T21:46:03.376Z,98210.66
2023-10-20T21:48:30.029Z,98207.16
2023-10-20T21:50:56.656Z,98216.06
2023-10-20T21:53:23.695Z,98200.69
2023-10-20T21:55:50.331Z,98207.16
2023-10-20T21:58:17.006Z,98208.78
2023-10-20T22:00:45.889Z,98215.75
2023-10-20T22:03:13.765Z,98206.22
2023-10-20T22:05:40.661Z,98220.22
2023-10-20T22:08:07.343Z,98216.97
2023-10-20T22:10:33.919Z,98219.13
2023-10-20T22:13:00.492Z,98218.84
2023-10-20T22:15:27.101Z,98219.34
2023-10-20T22:17:53.829Z,98228.25
2023-10-20T22:20:20.427Z,98234.16
2023-10-20T22:22:46.991Z,98233.34
2023-10-20T22:25:13.611Z,98249.75
2023-10-20T22:27:40.170Z,98250.00
2023-10-20T22:30:07.472Z,98252.13
2023-10-20T22:32:34.300Z,98255.66
2023-10-20T22:35:02.797Z,98248.06
2023-10-20T22:37:29.869Z,98253.72
2023-10-20T22:39:57.310Z,98253.72
2023-10-20T22:42:23.911Z,98256.28
2023-10-20T22:44:50.967Z,98255.06
2023-10-20T22:47:17.591Z,98258.09
2023-10-20T22:49:44.162Z,98258.78
2023-10-20T22:52:10.794Z,98269.63
2023-10-20T22:54:38.804Z,98268.88
2023-10-20T22:57:05.700Z,98280.31
2023-10-20T22:59:32.326Z,98286.56
2023-10-20T23:01:58.967Z,98282.28
2023-10-20T23:04:25.894Z,98285.81
2023-10-20T23:06:53.826Z,98292.03
2023-10-20T23:09:20.925Z,98295.50
2023-10-20T23:11:47.523Z,98294.97
2023-10-20T23:14:14.953Z,98291.44
2023-10-20T23:16:42.769Z,98293.88
2023-10-20T23:19:10.579Z,98306.88
2023-10-20T23:21:37.536Z,98303.09
2023-10-20T23:24:04.524Z,98305.84
2023-10-20T23:26:31.084Z,98317.25
2023-10-20T23:28:57.650Z,98311.03
2023-10-20T23:31:24.293Z,98316.72
2023-10-20T23:33:52.017Z,98317.25
2023-10-20T23:36:18.761Z,98315.00
2023-10-20T23:38:45.352Z,98313.09
2023-10-20T23:41:12.630Z,98312.25
2023-10-20T23:43:39.232Z,98321.94
2023-10-20T23:46:05.848Z,98321.66
2023-10-20T23:48:32.581Z,98325.41
2023-10-20T23:50:59.202Z,98324.63
2023-10-20T23:53:25.776Z,98330.53
2023-10-20T23:55:52.727Z,98323.22
2023-10-20T23:58:19.414Z,98326.72
